This is the latest recevied weather packets stored in our database for station/object DG2GGP-11. If no packets are shown the sender has not sent any weather packets the latest 10 day(s).
| Time | Temp. | Humidity | Pressure | Rain* | Wind** | Luminosity | Snow |
|---|---|---|---|---|---|---|---|
| 1777624757 | 14.44° C | 36% | 1026.2 hPa | 0 mm | - | 45 W/m² | - |
| 1777624157 | 14.44° C | 36% | 1026.3 hPa | 0 mm | - | 44 W/m² | - |
| 1777623557 | 14.44° C | 36% | 1026.3 hPa | 0 mm | - | 44 W/m² | - |
| 1777622957 | 13.89° C | 37% | 1026.3 hPa | 0 mm | - | 43 W/m² | - |
| 1777622357 | 13.33° C | 36% | 1026.2 hPa | 0 mm | - | 42 W/m² | - |
| 1777621757 | 13.33° C | 37% | 1026.1 hPa | 0 mm | - | 40 W/m² | - |
| 1777621157 | 12.78° C | 37% | 1026.1 hPa | 0 mm | - | 39 W/m² | - |
| 1777620557 | 12.22° C | 38% | 1026 hPa | 0 mm | - | 38 W/m² | - |
| 1777619957 | 11.67° C | 38% | 1025.9 hPa | 0 mm | - | 37 W/m² | - |
| 1777619356 | 10.56° C | 38% | 1026 hPa | 0 mm | - | 36 W/m² | - |
| 1777618757 | 10.56° C | 41% | 1026.1 hPa | 0 mm | - | 35 W/m² | - |
| 1777618157 | 10.56° C | 47% | 1026 hPa | 0 mm | - | 34 W/m² | - |
| 1777617557 | 9.44° C | 52% | 1025.9 hPa | 0 mm | - | 33 W/m² | - |
| 1777616957 | 9.44° C | 51% | 1025.8 hPa | 0 mm | - | 31 W/m² | - |
| 1777616357 | 8.33° C | 50% | 1025.8 hPa | 0 mm | - | 29 W/m² | - |
| 1777615757 | 7.22° C | 56% | 1025.8 hPa | 0 mm | - | 27 W/m² | - |
| 1777615157 | 5° C | 66% | 1025.8 hPa | 0 mm | - | 24 W/m² | - |
| 1777614557 | 2.22° C | 72% | 1025.8 hPa | 0 mm | - | 23 W/m² | - |
| 1777613957 | 1.11° C | 74% | 1025.7 hPa | 0 mm | - | 5 W/m² | - |
| 1777613357 | 0.56° C | 74% | 1025.7 hPa | 0 mm | - | 4 W/m² | - |
| 1777612757 | 0° C | 75% | 1025.6 hPa | 0 mm | - | 3 W/m² | - |
| 1777612157 | -0.56° C | 75% | 1025.6 hPa | 0 mm | - | 2 W/m² | - |
| 1777611557 | -1.11° C | 76% | 1025.5 hPa | 0 mm | - | 2 W/m² | - |
| 1777610957 | -1.11° C | 76% | 1025.5 hPa | 0 mm | - | 1 W/m² | - |
| 1777610357 | -1.11° C | 75% | 1025.4 hPa | 0 mm | - | 1 W/m² | - |
* Rain latest hour (hover to see other rain measurements)
** Current wind speed in m/s (hover to see current wind gust speed)